Time;durP1;ratioP1;P1;durP2;ratioP2;P2;SDS_P1;SDS_P2;PMS_P1;PMS_P2;Temp;Humidity;BMP_temperature;BMP_pressure;BME280_temperature;BME280_humidity;BME280_pressure;Samples;Min_cycle;Max_cycle;Signal;HPM_P1;HPM_P2
2021/01/23 00:00:23;;;;;;;34.78;19.52;;;;;;;-0.54;91.24;99509.83;1724262;83;21192;-70
2021/01/23 00:02:50;;;;;;;41.68;23.27;;;;;;;-0.52;91.08;99508.10;1723928;83;21206;-70
2021/01/23 00:05:18;;;;;;;55.80;24.55;;;;;;;-0.51;91.02;99508.95;1686794;84;21368;-70
2021/01/23 00:07:46;;;;;;;45.92;24.30;;;;;;;-0.50;91.16;99511.55;1723844;83;21725;-69
2021/01/23 00:10:13;;;;;;;47.35;24.25;;;;;;;-0.46;90.96;99524.03;1724050;83;22153;-69
2021/01/23 00:12:42;;;;;;;54.45;27.35;;;;;;;-0.45;90.74;99514.13;1723835;83;21207;-68
2021/01/23 00:15:12;;;;;;;48.80;24.05;;;;;;;-0.48;90.54;99511.56;1686952;85;21203;-70
2021/01/23 00:17:40;;;;;;;46.63;24.77;;;;;;;-0.48;90.45;99512.85;1724230;83;22185;-71
2021/01/23 00:20:10;;;;;;;50.67;25.12;;;;;;;-0.53;90.29;99510.27;1685109;85;21215;-70
2021/01/23 00:22:39;;;;;;;42.62;22.10;;;;;;;-0.54;90.16;99511.56;1681705;84;21207;-70
2021/01/23 00:25:08;;;;;;;49.95;25.30;;;;;;;-0.59;90.15;99510.72;1681696;85;21238;-70
2021/01/23 00:27:35;;;;;;;52.17;26.80;;;;;;;-0.65;90.03;99516.30;1681683;85;21302;-70
2021/01/23 00:30:06;;;;;;;47.83;24.60;;;;;;;-0.68;90.14;99511.58;1681657;85;21384;-70
2021/01/23 00:32:34;;;;;;;54.70;29.15;;;;;;;-0.73;90.25;99515.91;1681988;85;21162;-71
2021/01/23 00:35:05;;;;;;;57.70;27.15;;;;;;;-0.75;90.27;99512.02;1681732;85;21174;-71
2021/01/23 00:37:34;;;;;;;34.63;19.07;;;;;;;-0.75;90.19;99510.73;1681605;85;21216;-71
2021/01/23 00:40:02;;;;;;;48.92;26.02;;;;;;;-0.81;90.62;99516.33;1681603;85;21177;-71
2021/01/23 00:42:30;;;;;;;43.65;23.67;;;;;;;-0.84;90.87;99509.44;1681508;85;21377;-71
2021/01/23 00:44:58;;;;;;;46.92;24.67;;;;;;;-0.85;90.92;99516.78;1681575;85;21225;-71
2021/01/23 00:47:26;;;;;;;46.37;23.62;;;;;;;-0.83;90.92;99515.03;1681861;85;21672;-71
2021/01/23 00:49:53;;;;;;;44.88;25.25;;;;;;;-0.84;91.08;99506.86;1681800;85;22219;-72
2021/01/23 00:52:22;;;;;;;41.55;21.97;;;;;;;-0.83;91.02;99502.10;1681586;85;21467;-70
2021/01/23 00:54:50;;;;;;;49.20;23.92;;;;;;;-0.83;90.93;99507.27;1679111;84;22293;-70
2021/01/23 00:57:18;;;;;;;46.30;22.73;;;;;;;-0.85;91.03;99512.91;1683536;84;21653;-74
2021/01/23 00:59:46;;;;;;;44.67;24.60;;;;;;;-0.81;90.96;99504.26;1684255;85;21190;-72
2021/01/23 01:02:14;;;;;;;43.90;24.18;;;;;;;-0.81;90.92;99507.28;1684514;85;21272;-72
2021/01/23 01:04:43;;;;;;;43.78;24.37;;;;;;;-0.82;90.89;99503.84;1684603;85;21181;-73
2021/01/23 01:07:11;;;;;;;42.45;22.75;;;;;;;-0.81;91.00;99500.38;1655380;86;21428;-72
2021/01/23 01:09:39;;;;;;;40.58;22.27;;;;;;;-0.79;90.77;99499.95;1708679;83;21204;-73
2021/01/23 01:12:08;;;;;;;41.02;23.22;;;;;;;-0.79;90.95;99494.78;1709049;83;21877;-71
2021/01/23 01:14:36;;;;;;;39.00;21.97;;;;;;;-0.82;90.85;99493.50;1708890;83;21188;-72
2021/01/23 01:17:04;;;;;;;41.77;20.95;;;;;;;-0.83;90.85;99486.59;1708874;83;21161;-71
2021/01/23 01:19:33;;;;;;;48.00;24.12;;;;;;;-0.85;90.89;99486.62;1708855;83;21447;-70
2021/01/23 01:22:00;;;;;;;33.85;17.02;;;;;;;-0.85;91.00;99485.77;1708681;83;21686;-70
2021/01/23 01:24:28;;;;;;;42.48;23.67;;;;;;;-0.89;91.05;99482.30;1708698;83;21212;-68
2021/01/23 01:26:57;;;;;;;41.63;20.85;;;;;;;-0.86;91.05;99483.58;1708631;83;21638;-68
2021/01/23 01:29:25;;;;;;;40.43;22.35;;;;;;;-0.91;91.19;99493.52;1708609;83;21189;-68
2021/01/23 01:31:52;;;;;;;39.78;20.85;;;;;;;-0.87;91.16;99491.36;1708599;83;21461;-67
2021/01/23 01:34:20;;;;;;;50.67;23.73;;;;;;;-0.83;91.00;99489.62;1708758;83;21668;-68
2021/01/23 01:36:49;;;;;;;39.55;21.45;;;;;;;-0.83;90.83;99493.05;1708620;83;21180;-68
2021/01/23 01:39:16;;;;;;;45.03;23.32;;;;;;;-0.81;90.81;99496.50;1708529;83;21208;-69
2021/01/23 01:41:45;;;;;;;36.85;20.77;;;;;;;-0.79;90.67;99507.70;1708731;83;21204;-68
2021/01/23 01:44:13;;;;;;;46.02;21.77;;;;;;;-0.80;90.24;99503.41;1708800;83;21401;-69
2021/01/23 01:46:42;;;;;;;43.08;22.80;;;;;;;-0.85;90.11;99512.47;1708648;83;22242;-68
2021/01/23 01:49:09;;;;;;;35.83;20.75;;;;;;;-0.87;90.18;99502.99;1708934;83;21181;-69
2021/01/23 01:51:38;;;;;;;37.33;19.62;;;;;;;-0.89;90.42;99503.42;1708583;83;21205;-69
2021/01/23 01:54:05;;;;;;;45.67;23.95;;;;;;;-0.87;90.34;99505.58;1708706;83;21162;-68
2021/01/23 01:56:34;;;;;;;41.08;22.35;;;;;;;-0.91;90.31;99515.48;1708937;83;21399;-68
2021/01/23 01:59:01;;;;;;;36.88;19.70;;;;;;;-0.93;90.25;99500.40;1708759;83;21153;-70
2021/01/23 02:01:32;;;;;;;41.58;21.77;;;;;;;-0.95;90.58;99502.98;1708581;83;21140;-71
2021/01/23 02:04:26;;;;;;;45.17;22.00;;;;;;;-0.95;90.86;99506.00;1708793;83;21157;-71
2021/01/23 02:07:39;;;;;;;31.45;14.65;;;;;;;-0.91;90.73;99493.52;1708793;83;21636;-69
2021/01/23 02:11:14;;;;;;;40.40;20.88;;;;;;;-0.90;90.85;99497.40;1692596;83;21624;-69
2021/01/23 02:14:24;;;;;;;40.67;19.65;;;;;;;-0.87;90.71;99490.06;1711738;83;21226;-70
2021/01/23 02:16:53;;;;;;;37.03;20.77;;;;;;;-0.87;90.56;99497.83;1717112;83;21190;-71
2021/01/23 02:19:49;;;;;;;39.65;20.02;;;;;;;-0.87;90.65;99484.90;1717356;83;21163;-70
2021/01/23 02:22:25;;;;;;;39.75;21.93;;;;;;;-0.88;90.61;99486.59;1717377;83;21163;-69
2021/01/23 02:24:53;;;;;;;45.25;21.97;;;;;;;-0.89;90.62;99486.62;1693191;83;21366;-73
2021/01/23 02:27:45;;;;;;;43.45;21.60;;;;;;;-0.90;90.62;99495.22;1708427;83;21186;-70
2021/01/23 02:30:33;;;;;;;43.98;21.70;;;;;;;-0.90;90.73;99491.34;1718981;83;21622;-71
2021/01/23 02:33:01;;;;;;;43.85;21.35;;;;;;;-0.93;90.80;99491.35;1718392;83;21218;-73
2021/01/23 02:35:29;;;;;;;45.28;21.50;;;;;;;-0.96;90.82;99495.24;1719076;83;21158;-69
2021/01/23 02:37:57;;;;;;;38.35;22.05;;;;;;;-0.95;90.86;99507.30;1718778;83;22531;-70
2021/01/23 02:40:25;;;;;;;38.58;18.37;;;;;;;-0.96;90.89;99504.29;1718777;82;21215;-71
2021/01/23 02:42:53;;;;;;;47.60;22.55;;;;;;;-0.98;90.89;99505.58;1718859;83;21186;-70
2021/01/23 02:45:21;;;;;;;36.90;19.85;;;;;;;-1.00;90.90;99502.56;1719116;82;21163;-70
2021/01/23 02:47:49;;;;;;;36.68;20.17;;;;;;;-1.00;90.81;99496.10;1718922;83;21669;-70
2021/01/23 02:50:17;;;;;;;37.28;20.12;;;;;;;-1.01;90.98;99482.73;1718917;83;22280;-72
2021/01/23 02:53:11;;;;;;;34.92;15.68;;;;;;;-1.01;91.04;99481.03;1698481;83;22228;-71
2021/01/23 02:55:40;;;;;;;45.43;21.73;;;;;;;-1.06;90.98;99486.61;1716962;83;21207;-71
2021/01/23 02:58:07;;;;;;;42.83;22.10;;;;;;;-1.08;90.95;99480.17;1718547;82;21249;-71
2021/01/23 03:00:38;;;;;;;35.80;17.48;;;;;;;-1.11;90.83;99479.30;1718680;83;21199;-72
2021/01/23 03:03:06;;;;;;;41.77;19.17;;;;;;;-1.17;90.99;99484.05;1665047;84;21488;-70
2021/01/23 03:05:35;;;;;;;43.98;22.17;;;;;;;-1.19;91.19;99496.54;1689702;84;21174;-71
2021/01/23 03:08:05;;;;;;;45.43;22.42;;;;;;;-1.22;91.18;99507.73;1690085;84;21214;-70
2021/01/23 03:10:38;;;;;;;37.90;19.25;;;;;;;-1.20;91.04;99507.28;1689778;84;21158;-71
2021/01/23 03:13:05;;;;;;;35.25;20.43;;;;;;;-1.21;90.83;99513.77;1689923;84;21175;-71
2021/01/23 03:15:33;;;;;;;37.83;21.75;;;;;;;-1.24;90.81;99512.04;1689956;84;21796;-71
2021/01/23 03:18:03;;;;;;;39.80;20.75;;;;;;;-1.26;90.83;99513.76;1689617;84;21702;-69
2021/01/23 03:20:31;;;;;;;37.83;19.02;;;;;;;-1.27;91.01;99512.91;1692831;83;21197;-69
2021/01/23 03:22:59;;;;;;;37.03;18.48;;;;;;;-1.26;91.14;99515.05;1709409;83;21198;-70
2021/01/23 03:25:27;;;;;;;43.70;20.57;;;;;;;-1.25;91.27;99514.17;1688978;83;21224;-69
2021/01/23 03:27:56;;;;;;;36.42;18.75;;;;;;;-1.27;91.21;99515.89;1688019;85;21903;-69
2021/01/23 03:30:24;;;;;;;38.73;19.37;;;;;;;-1.29;91.10;99509.86;1688293;85;21192;-70
2021/01/23 03:32:52;;;;;;;44.85;22.22;;;;;;;-1.30;91.14;99518.05;1688239;85;21204;-72
2021/01/23 03:35:21;;;;;;;44.20;23.27;;;;;;;-1.31;91.18;99518.06;1688301;85;21216;-69
2021/01/23 03:37:49;;;;;;;37.58;22.45;;;;;;;-1.31;91.57;99520.65;1688269;84;21611;-70
2021/01/23 03:40:18;;;;;;;43.60;22.75;;;;;;;-1.30;91.70;99513.31;1688405;85;21435;-70
2021/01/23 03:42:46;;;;;;;43.85;22.17;;;;;;;-1.28;91.86;99509.02;1688135;84;21172;-71
2021/01/23 03:45:15;;;;;;;44.15;23.18;;;;;;;-1.28;92.00;99503.84;1688360;85;21193;-69
2021/01/23 03:47:43;;;;;;;46.23;21.60;;;;;;;-1.27;92.04;99502.97;1688166;85;21157;-71
2021/01/23 03:50:13;;;;;;;39.92;20.32;;;;;;;-1.27;91.99;99502.97;1688236;84;21281;-69
2021/01/23 03:52:41;;;;;;;37.98;21.27;;;;;;;-1.26;91.95;99508.59;1688269;85;21406;-69
2021/01/23 03:55:11;;;;;;;43.20;22.30;;;;;;;-1.23;91.85;99512.89;1688241;84;21236;-70
2021/01/23 03:57:39;;;;;;;48.00;24.93;;;;;;;-1.26;91.90;99511.17;1688308;84;21236;-69
2021/01/23 04:00:10;;;;;;;73.85;31.30;;;;;;;-1.26;91.85;99512.46;1688268;84;21224;-69
2021/01/23 04:02:38;;;;;;;69.10;32.98;;;;;;;-1.26;91.86;99518.92;1688536;85;21221;-69
2021/01/23 04:05:08;;;;;;;55.48;24.95;;;;;;;-1.26;92.01;99516.34;1688413;85;21383;-69
2021/01/23 04:07:37;;;;;;;50.83;24.20;;;;;;;-1.25;91.99;99516.76;1688238;85;21367;-69
2021/01/23 04:10:08;;;;;;;35.05;17.75;;;;;;;-1.28;92.10;99518.91;1688424;84;21219;-70
2021/01/23 04:12:37;;;;;;;51.08;23.42;;;;;;;-1.29;92.07;99513.73;1688229;84;21208;-72
2021/01/23 04:15:06;;;;;;;48.23;21.17;;;;;;;-1.29;91.99;99518.49;1688229;84;21205;-69
2021/01/23 04:17:34;;;;;;;44.88;23.98;;;;;;;-1.34;92.03;99519.33;1688355;85;21402;-69
2021/01/23 04:20:06;;;;;;;48.40;23.98;;;;;;;-1.33;92.17;99513.32;1688458;85;21160;-69
2021/01/23 04:22:34;;;;;;;44.38;21.93;;;;;;;-1.34;92.26;99524.06;1688342;84;21631;-70
2021/01/23 04:25:05;;;;;;;51.58;26.97;;;;;;;-1.34;92.03;99520.19;1712804;83;21574;-69
2021/01/23 04:27:33;;;;;;;44.05;20.40;;;;;;;-1.34;92.03;99521.91;1718673;83;21575;-69
2021/01/23 04:30:03;;;;;;;71.95;30.62;;;;;;;-1.39;92.04;99513.30;1718553;83;21390;-69
2021/01/23 04:32:31;;;;;;;56.45;26.05;;;;;;;-1.39;92.13;99513.30;1718820;83;21642;-69
2021/01/23 04:34:59;;;;;;;68.22;28.50;;;;;;;-1.38;92.01;99502.98;1718410;82;21218;-69
2021/01/23 04:38:43;;;;;;;52.77;24.83;;;;;;;-1.34;91.97;99494.35;1774646;78;22641;-70
2021/01/23 04:41:11;;;;;;;39.45;20.88;;;;;;;-1.41;91.91;99501.66;1747417;82;21123;-69
2021/01/23 04:43:38;;;;;;;43.83;23.60;;;;;;;-1.46;92.20;99511.14;1747280;82;21474;-70
2021/01/23 04:46:06;;;;;;;40.75;22.25;;;;;;;-1.49;92.31;99508.13;1747393;82;21195;-70
2021/01/23 04:48:35;;;;;;;43.30;23.98;;;;;;;-1.49;92.29;99523.62;1747591;82;21171;-70
2021/01/23 04:51:04;;;;;;;41.88;21.97;;;;;;;-1.51;92.21;99521.45;1744681;81;21167;-71
2021/01/23 04:53:32;;;;;;;44.33;21.95;;;;;;;-1.51;92.23;99514.15;1717636;82;21166;-69
2021/01/23 04:56:00;;;;;;;43.83;22.13;;;;;;;-1.54;92.29;99522.75;1714180;83;21272;-69
2021/01/23 04:58:28;;;;;;;39.00;20.12;;;;;;;-1.54;92.33;99519.28;1688900;84;21206;-67
2021/01/23 05:00:55;;;;;;;40.43;22.27;;;;;;;-1.56;92.52;99523.17;1674894;83;21676;-68
2021/01/23 05:03:23;;;;;;;44.33;23.38;;;;;;;-1.59;92.59;99516.69;1674077;85;21201;-69
2021/01/23 05:06:07;;;;;;;50.60;24.80;;;;;;;-1.59;92.59;99514.11;1674144;85;21665;-70
2021/01/23 05:08:38;;;;;;;66.15;28.85;;;;;;;-1.58;92.48;99511.98;1674139;85;21203;-69
2021/01/23 05:11:06;;;;;;;;;;;;;;;-1.57;92.37;99516.70;1676555;85;21209;-69
2021/01/23 05:13:33;;;;;;;55.20;25.00;;;;;;;-1.57;92.32;99526.59;1674065;85;20299;-68
2021/01/23 05:16:03;;;;;;;74.85;32.80;;;;;;;-1.59;92.29;99524.44;1672046;85;22298;-69
2021/01/23 05:18:30;;;;;;;66.20;29.70;;;;;;;-1.57;92.18;99530.47;1672058;85;21206;-69
2021/01/23 05:20:59;;;;;;;53.35;26.97;;;;;;;-1.60;92.10;99526.60;1671922;85;21372;-70
2021/01/23 05:23:30;;;;;;;47.83;23.10;;;;;;;-1.61;92.08;99523.60;1629344;83;21245;-69
2021/01/23 05:26:00;;;;;;;44.93;22.37;;;;;;;-1.59;92.03;99524.88;1715160;83;21264;-71
2021/01/23 05:28:32;;;;;;;41.75;21.15;;;;;;;-1.63;92.04;99522.73;1715307;83;21175;-69
2021/01/23 05:31:00;;;;;;;;;;;;;;;-1.67;92.27;99522.28;1717716;83;21178;-69
2021/01/23 05:33:32;;;;;;;53.60;24.23;;;;;;;-1.71;92.36;99525.70;1715202;83;22635;-71
2021/01/23 05:36:07;;;;;;;33.08;16.27;;;;;;;-1.74;92.59;99524.42;1715232;83;22355;-69
2021/01/23 05:38:37;;;;;;;53.00;24.82;;;;;;;-1.80;93.14;99534.72;1707171;83;21771;-72
2021/01/23 05:41:13;;;;;;;48.10;26.07;;;;;;;-1.83;93.43;99530.41;1705445;84;21205;-72
2021/01/23 05:43:49;;;;;;;49.13;25.00;;;;;;;-1.83;93.54;99537.30;1705401;83;21176;-71
2021/01/23 05:46:31;;;;;;;58.20;26.95;;;;;;;-1.84;93.45;99543.30;1705294;84;21203;-69
2021/01/23 05:49:00;;;;;;;40.08;18.30;;;;;;;-1.86;93.55;99535.97;1704835;84;21172;-69
2021/01/23 05:51:27;;;;;;;57.58;29.15;;;;;;;-1.86;93.78;99539.84;1704951;84;22337;-69
2021/01/23 05:53:55;;;;;;;48.60;23.83;;;;;;;-1.87;94.16;99551.04;1704788;84;21234;-69
2021/01/23 05:56:24;;;;;;;52.08;24.87;;;;;;;-1.86;94.16;99547.59;1704858;84;21658;-71
2021/01/23 05:58:52;;;;;;;49.30;24.00;;;;;;;-1.84;94.09;99548.06;1704595;84;21264;-69
2021/01/23 06:01:21;;;;;;;49.58;24.32;;;;;;;-1.82;94.15;99535.13;1703672;84;21203;-71
2021/01/23 06:03:58;;;;;;;61.18;28.65;;;;;;;-1.81;94.27;99535.59;1664603;84;21189;-72
2021/01/23 06:06:44;;;;;;;51.60;22.95;;;;;;;-1.81;94.21;99524.83;1666584;83;21191;-72
2021/01/23 06:09:42;;;;;;;45.90;22.20;;;;;;;-1.81;94.27;99526.12;1706240;82;21159;-72
2021/01/23 06:12:33;;;;;;;50.12;23.32;;;;;;;-1.81;94.19;99522.24;1711893;83;22131;-70
2021/01/23 06:15:01;;;;;;;44.73;20.52;;;;;;;-1.82;94.13;99519.65;1710206;83;21202;-70
2021/01/23 06:17:46;;;;;;;51.68;25.30;;;;;;;-1.81;94.28;99529.13;1676085;81;22185;-65
2021/01/23 06:20:46;;;;;;;49.48;24.20;;;;;;;-1.80;94.10;99525.68;1665346;84;21212;-65
2021/01/23 06:23:16;;;;;;;61.37;30.75;;;;;;;-1.81;94.16;99539.45;1665785;84;21184;-63
2021/01/23 06:25:55;;;;;;;63.52;33.85;;;;;;;-1.83;94.32;99537.30;1692103;84;21430;-64
2021/01/23 06:28:30;;;;;;;66.55;34.90;;;;;;;-1.80;94.18;99552.78;1692305;84;21179;-64
2021/01/23 06:30:58;;;;;;;68.42;35.25;;;;;;;-1.76;94.09;99553.23;1692289;84;21196;-66
2021/01/23 06:33:30;;;;;;;63.02;32.80;;;;;;;-1.70;94.06;99553.27;1643270;85;21180;-64
2021/01/23 06:36:10;;;;;;;65.90;34.50;;;;;;;-1.58;93.93;99568.79;1689287;81;21240;-71
2021/01/23 06:38:38;;;;;;;46.48;24.77;;;;;;;-1.43;93.59;99568.39;1693024;83;21452;-72
2021/01/23 06:41:33;;;;;;;53.98;29.12;;;;;;;-1.23;93.26;99571.88;1622593;87;21178;-71
2021/01/23 06:44:17;;;;;;;53.95;26.33;;;;;;;-1.11;92.14;99569.30;1642119;87;21662;-73
2021/01/23 06:46:56;;;;;;;50.55;26.20;;;;;;;-1.04;91.17;99574.48;1643166;87;21205;-71
2021/01/23 06:49:25;;;;;;;60.50;28.15;;;;;;;-1.02;90.70;99571.05;1638559;87;21246;-73
2021/01/23 06:52:06;;;;;;;52.25;25.68;;;;;;;-0.98;90.35;99571.92;1615908;87;21804;-72
2021/01/23 06:54:35;;;;;;;50.33;25.57;;;;;;;-0.82;90.18;99564.59;1614143;88;21168;-71
2021/01/23 06:57:05;;;;;;;45.95;23.38;;;;;;;-0.54;89.40;99573.64;1608869;88;25797;-73
2021/01/23 06:59:37;;;;;;;69.05;30.65;;;;;;;-0.28;89.12;99577.03;1637790;85;21255;-72
2021/01/23 07:02:16;;;;;;;51.63;27.52;;;;;;;0.05;88.20;99567.47;1643918;85;21750;-73
2021/01/23 07:04:47;;;;;;;168.35;48.48;;;;;;;0.38;86.56;99566.91;1641903;87;21402;-72
2021/01/23 07:07:18;;;;;;;214.35;57.50;;;;;;;0.69;85.20;99562.84;1641525;86;21200;-74
2021/01/23 07:09:54;;;;;;;171.13;50.97;;;;;;;1.06;83.83;99562.18;1646139;86;21230;-73
2021/01/23 07:12:43;;;;;;;102.25;38.00;;;;;;;1.44;83.02;99557.95;1643302;86;21195;-73
2021/01/23 07:15:13;;;;;;;50.20;27.37;;;;;;;1.81;82.15;99556.28;1620349;87;21216;-74
2021/01/23 07:17:43;;;;;;;181.95;56.23;;;;;;;2.17;79.00;99556.77;1615304;82;21326;-69
2021/01/23 07:20:16;;;;;;;74.07;29.80;;;;;;;2.56;79.72;99560.18;1646033;86;21718;-70
2021/01/23 07:22:46;;;;;;;170.28;58.20;;;;;;;3.04;78.31;99556.00;1669549;85;21222;-68
2021/01/23 07:25:16;;;;;;;122.02;44.60;;;;;;;3.41;74.94;99544.14;1662076;83;21207;-67
2021/01/23 07:27:44;;;;;;;90.15;35.60;;;;;;;3.62;74.12;99540.30;1650013;86;21234;-66
2021/01/23 07:30:15;;;;;;;111.00;40.75;;;;;;;4.07;73.97;99545.08;1653929;85;22730;-68
2021/01/23 07:32:45;;;;;;;74.67;32.23;;;;;;;4.46;72.50;99545.57;1646571;84;21262;-67
2021/01/23 07:35:14;;;;;;;141.10;47.78;;;;;;;4.94;72.29;99553.20;1659035;84;21246;-66
2021/01/23 07:37:48;;;;;;;51.08;26.48;;;;;;;5.47;67.41;99553.64;1661178;85;21206;-68
2021/01/23 07:43:06;;;;;;;37.58;23.40;;;;;;;5.40;62.49;99545.55;1820206;76;28244;-71
2021/01/23 07:45:34;;;;;;;44.35;23.95;;;;;;;5.07;63.21;99549.41;1758596;80;21156;-69
2021/01/23 07:48:05;;;;;;;39.95;21.55;;;;;;;4.98;63.69;99557.45;1780230;79;21503;-70
2021/01/23 07:50:41;;;;;;;40.90;22.67;;;;;;;4.94;64.17;99558.41;1798272;78;21208;-71
2021/01/23 07:53:21;;;;;;;38.17;21.10;;;;;;;4.96;64.55;99567.07;1732092;81;21231;-70
2021/01/23 07:55:50;;;;;;;46.18;25.88;;;;;;;4.77;64.08;99567.48;1734535;81;21191;-70
2021/01/23 07:58:18;;;;;;;83.75;35.75;;;;;;;4.70;64.46;99561.15;1735712;81;21200;-70
2021/01/23 08:00:46;;;;;;;149.72;51.13;;;;;;;4.89;65.43;99549.84;1743786;81;21186;-69
2021/01/23 08:03:14;;;;;;;89.42;37.35;;;;;;;5.40;65.54;99541.64;1742029;81;21207;-70
2021/01/23 08:05:49;;;;;;;46.65;24.90;;;;;;;6.08;64.07;99535.06;1736994;81;21264;-70
2021/01/23 08:08:36;;;;;;;55.63;29.70;;;;;;;6.55;60.67;99538.95;1735259;81;21250;-70
2021/01/23 08:11:06;;;;;;;58.80;28.32;;;;;;;6.87;59.54;99534.89;1731865;81;21155;-70
2021/01/23 08:13:35;;;;;;;68.50;32.73;;;;;;;7.02;58.97;99537.49;1733907;81;22878;-69
2021/01/23 08:16:11;;;;;;;48.28;27.85;;;;;;;7.20;57.57;99547.83;1739158;81;21613;-69
2021/01/23 08:18:43;;;;;;;45.60;26.27;;;;;;;7.03;57.04;99555.36;1738306;81;22318;-69
2021/01/23 08:21:21;;;;;;;56.77;28.90;;;;;;;6.50;57.99;99571.33;1734125;81;21226;-69
2021/01/23 08:23:49;;;;;;;44.30;25.23;;;;;;;5.93;59.26;99578.56;1740036;81;21935;-69
2021/01/23 08:26:18;;;;;;;46.10;25.23;;;;;;;5.22;60.68;99593.44;1731257;81;22952;-70
2021/01/23 08:28:47;;;;;;;52.35;26.20;;;;;;;4.65;62.62;99593.85;1735179;81;21663;-70
2021/01/23 08:31:24;;;;;;;51.35;27.02;;;;;;;3.94;64.44;99594.39;1742739;81;21187;-70
2021/01/23 08:34:28;;;;;;;;;;;;;;;;;;;;;
2021/01/23 08:37:18;;;;;;;57.10;28.10;;;;;;;3.01;68.20;99592.89;1733987;81;21234;-70
2021/01/23 08:39:58;;;;;;;67.78;28.98;;;;;;;2.74;69.32;99598.92;1704817;81;21578;-65
2021/01/23 08:42:26;;;;;;;68.50;31.48;;;;;;;2.38;70.98;99584.66;1675875;84;21179;-65
2021/01/23 08:44:54;;;;;;;53.28;26.30;;;;;;;2.17;72.46;99574.95;1708768;83;21169;-66
2021/01/23 08:47:22;;;;;;;67.47;32.63;;;;;;;1.94;73.68;99582.14;1704663;82;21227;-66
2021/01/23 08:49:49;;;;;;;63.90;29.02;;;;;;;1.74;75.06;99588.83;1762324;80;21121;-66
2021/01/23 08:52:18;;;;;;;67.25;29.52;;;;;;;1.64;75.79;99582.87;1752130;80;21362;-66
2021/01/23 08:54:45;;;;;;;70.42;34.40;;;;;;;1.66;76.33;99582.42;1748738;80;21164;-65
2021/01/23 08:57:13;;;;;;;56.40;25.25;;;;;;;1.74;76.48;99584.48;1736230;79;21206;-74
2021/01/23 08:59:41;;;;;;;70.65;34.48;;;;;;;1.97;76.54;99581.66;1670490;85;21194;-74
2021/01/23 09:02:10;;;;;;;57.03;27.93;;;;;;;1.97;76.54;99581.66;1670412;85;21618;-74
2021/01/23 09:04:39;;;;;;;55.20;25.77;;;;;;;2.18;76.53;99584.45;1670659;85;22706;-73
2021/01/23 09:07:08;;;;;;;69.00;35.80;;;;;;;2.50;75.74;99579.30;1659150;85;21645;-72
2021/01/23 09:09:38;;;;;;;67.05;33.60;;;;;;;3.40;74.46;99580.14;1670564;85;21231;-72
2021/01/23 09:12:07;;;;;;;67.53;34.48;;;;;;;3.40;74.46;99580.14;1686301;84;21235;-73
2021/01/23 09:14:35;;;;;;;70.42;34.03;;;;;;;4.12;71.71;99575.80;1714979;83;21177;-72
2021/01/23 09:17:04;;;;;;;68.95;35.10;;;;;;;4.83;68.76;99566.05;1715139;83;21181;-73
2021/01/23 09:19:32;;;;;;;65.72;33.00;;;;;;;5.46;66.22;99561.08;1714858;83;21177;-72
2021/01/23 09:22:00;;;;;;;57.53;32.30;;;;;;;5.95;66.04;99566.80;1701923;82;22270;-72
2021/01/23 09:24:28;;;;;;;57.10;31.90;;;;;;;6.23;63.71;99560.36;1706756;83;21154;-72
2021/01/23 09:26:56;;;;;;;61.40;33.20;;;;;;;6.29;62.92;99561.50;1637745;86;21206;-72
2021/01/23 09:29:24;;;;;;;64.30;32.28;;;;;;;6.21;62.71;99560.84;1652425;85;23062;-68
2021/01/23 09:31:52;;;;;;;54.42;29.32;;;;;;;6.03;62.08;99563.09;1712914;82;21646;-70
2021/01/23 09:34:20;;;;;;;48.15;25.95;;;;;;;5.95;61.83;99571.58;1711492;83;21157;-69
2021/01/23 09:36:48;;;;;;;58.38;29.35;;;;;;;5.91;61.87;99560.76;1714761;83;21197;-70
2021/01/23 09:39:15;;;;;;;55.12;26.87;;;;;;;6.12;61.61;99555.88;1714851;83;21193;-69
2021/01/23 09:41:43;;;;;;;54.55;29.10;;;;;;;6.39;60.94;99559.02;1711054;83;21636;-72
2021/01/23 09:44:10;;;;;;;50.55;27.93;;;;;;;6.50;60.26;99558.70;1654856;85;21431;-74
2021/01/23 09:46:39;;;;;;;50.90;30.27;;;;;;;6.21;59.75;99554.31;1715056;83;21672;-71
2021/01/23 09:49:06;;;;;;;53.52;29.65;;;;;;;5.91;61.35;99549.00;1705193;83;21193;-71
2021/01/23 09:51:34;;;;;;;52.65;29.55;;;;;;;5.29;62.36;99551.48;1686295;83;21157;-71
2021/01/23 09:54:03;;;;;;;54.10;29.48;;;;;;;4.86;63.88;99549.47;1657412;85;21185;-71
2021/01/23 09:56:30;;;;;;;58.45;31.05;;;;;;;4.69;65.22;99555.05;1692749;83;21237;-70
2021/01/23 09:58:58;;;;;;;60.65;31.15;;;;;;;4.53;65.72;99548.45;1732011;80;21205;-71
2021/01/23 10:01:26;;;;;;;50.10;27.65;;;;;;;4.30;66.83;99545.91;1736624;81;21240;-71
2021/01/23 10:03:53;;;;;;;57.10;29.82;;;;;;;4.02;67.72;99542.98;1737504;81;21154;-71
2021/01/23 10:06:23;;;;;;;51.45;28.65;;;;;;;3.79;68.45;99543.42;1753310;81;21171;-70
2021/01/23 10:08:51;;;;;;;52.05;25.95;;;;;;;3.67;69.44;99547.12;1702288;83;21209;-72
2021/01/23 10:11:19;;;;;;;54.05;27.70;;;;;;;3.37;70.68;99561.53;1689590;83;21689;-70
2021/01/23 10:13:48;;;;;;;53.17;26.82;;;;;;;3.03;72.05;99558.62;1749497;81;21227;-70
2021/01/23 10:16:16;;;;;;;54.80;26.37;;;;;;;2.68;73.57;99567.35;1704362;83;21261;-71
2021/01/23 10:18:43;;;;;;;57.23;28.35;;;;;;;2.41;74.90;99558.17;1681435;84;21197;-71
2021/01/23 10:21:11;;;;;;;59.50;29.00;;;;;;;2.30;75.66;99558.34;1684438;84;21188;-70
2021/01/23 10:23:39;;;;;;;70.57;34.53;;;;;;;2.25;75.92;99561.41;1688807;84;21670;-72
2021/01/23 10:26:06;;;;;;;69.17;32.28;;;;;;;2.27;76.26;99570.05;1686690;84;21197;-71
2021/01/23 10:28:35;;;;;;;70.60;32.17;;;;;;;2.12;76.90;99578.45;1683185;84;21168;-71
2021/01/23 10:31:03;;;;;;;76.28;33.38;;;;;;;2.12;76.90;99578.45;1705751;82;21503;-72
2021/01/23 10:33:30;;;;;;;78.40;36.17;;;;;;;1.91;78.22;99578.26;1694290;83;21209;-72
2021/01/23 10:35:58;;;;;;;82.12;37.25;;;;;;;1.63;79.18;99573.34;1744811;81;21202;-70
2021/01/23 10:38:25;;;;;;;66.90;29.10;;;;;;;1.48;79.77;99578.70;1739997;81;21174;-69
2021/01/23 10:40:54;;;;;;;83.05;37.73;;;;;;;1.46;80.27;99574.37;1694460;83;21705;-71
2021/01/23 10:43:22;;;;;;;76.95;34.45;;;;;;;1.46;80.88;99578.70;1703039;82;21388;-70
2021/01/23 10:45:49;;;;;;;86.72;38.53;;;;;;;1.42;80.96;99564.88;1704545;82;21278;-71
2021/01/23 10:48:17;;;;;;;67.53;30.15;;;;;;;1.49;81.06;99560.95;1704464;82;21231;-70
2021/01/23 10:50:45;;;;;;;74.92;31.85;;;;;;;1.60;81.37;99565.59;1708587;82;21216;-70
2021/01/23 10:53:13;;;;;;;76.62;34.53;;;;;;;1.72;81.23;99564.17;1710034;82;21195;-71
2021/01/23 10:55:40;;;;;;;77.45;34.13;;;;;;;1.79;80.73;99561.93;1687000;84;21845;-72
2021/01/23 10:58:08;;;;;;;77.65;35.40;;;;;;;1.77;80.71;99560.23;1677434;84;21205;-71
2021/01/23 11:00:37;;;;;;;66.00;29.37;;;;;;;1.70;81.35;99559.42;1672902;85;21210;-73
2021/01/23 11:03:05;;;;;;;68.72;31.52;;;;;;;1.68;81.29;99558.61;1706298;83;21175;-74
2021/01/23 11:05:33;;;;;;;73.33;33.35;;;;;;;1.63;81.01;99548.27;1700951;83;21186;-73
2021/01/23 11:08:01;;;;;;;131.03;56.42;;;;;;;1.61;81.44;99542.65;1705701;83;22356;-70
2021/01/23 11:10:30;;;;;;;82.40;37.70;;;;;;;1.67;81.49;99536.11;1703326;83;21222;-72
2021/01/23 11:12:59;;;;;;;101.90;44.60;;;;;;;1.74;81.46;99529.13;1703594;83;21210;-71
2021/01/23 11:15:27;;;;;;;88.87;39.20;;;;;;;1.73;81.38;99523.08;1691859;83;21721;-74
2021/01/23 11:17:54;;;;;;;75.65;35.15;;;;;;;1.68;81.31;99527.02;1696418;83;21234;-72
2021/01/23 11:20:22;;;;;;;71.90;32.30;;;;;;;1.66;81.59;99526.62;1659338;85;21296;-69
2021/01/23 11:22:50;;;;;;;60.48;27.60;;;;;;;1.65;81.46;99523.13;1661467;85;21750;-72
2021/01/23 11:25:18;;;;;;;72.27;33.40;;;;;;;1.55;81.44;99525.86;1669222;85;21365;-73
2021/01/23 11:27:46;;;;;;;81.30;35.48;;;;;;;1.40;81.94;99526.86;1693995;83;21210;-71
2021/01/23 11:30:17;;;;;;;95.47;43.17;;;;;;;1.30;82.46;99521.34;1686781;83;21183;-71
2021/01/23 11:32:44;;;;;;;91.05;37.28;;;;;;;1.24;82.97;99523.54;1690018;83;22368;-70
2021/01/23 11:35:12;;;;;;;76.28;32.05;;;;;;;1.20;83.50;99516.68;1688534;83;21218;-72
2021/01/23 11:37:40;;;;;;;63.90;30.23;;;;;;;1.18;83.79;99523.61;1660622;85;21195;-72
2021/01/23 11:40:09;;;;;;;83.10;35.23;;;;;;;1.04;84.25;99516.80;1667351;85;21198;-72
2021/01/23 11:42:37;;;;;;;88.17;34.63;;;;;;;0.91;84.82;99526.84;1662559;85;21160;-72